Flight Track Log - Related Links

Times and Time Zones

All times are in EST time to prevent confusion due to time zone crossing. See the AAY894 flight status page for this flight to view local times or setup timezone preferences in your user account.

Time Position Orientation Groundspeed Altitude Reporting Facility
EST Latitude Longitude Course Direction KTS MPH feet Rate Location/Type
Sun 08:23:05 AM 27.9333 -82.7000 24° Northeast 180 207 900  Level Tampa TRACON
Sun 08:23:59 AM 27.9667 -82.6833 24° Northeast 183 211 2,500 1,588 Climbing Tampa TRACON
Sun 08:24:47 AM 28.0167 -82.6833 360° North 220 253 3,600 1,889 Climbing Tampa TRACON
Sun 08:25:47 AM 28.0833 -82.6667 12° North 275 316 5,900 2,269 Climbing Tampa TRACON
Sun 08:28:00 AM 28.2561 -82.6617 North 274 315 10,900 1,865 Climbing Jacksonville Center
Sun 08:29:00 AM 28.3500 -82.6639 359° North 299 344 11,900 1,400 Climbing Jacksonville Center
Sun 08:30:00 AM 28.4564 -82.6658 359° North 345 397 13,700 2,000 Climbing Jacksonville Center
Sun 08:31:00 AM 28.5692 -82.6681 359° North 381 438 15,900 2,150 Climbing Jacksonville Center
Sun 08:32:00 AM 28.6797 -82.6653 North 395 455 18,000 1,700 Climbing Jacksonville Center
Sun 08:33:00 AM 28.7967 -82.6650 360° North 405 466 19,300 1,450 Climbing Jacksonville Center
Sun 08:34:00 AM 28.9156 -82.6647 360° North 411 473 20,900 1,550 Climbing Jacksonville Center
Sun 08:35:00 AM 29.0367 -82.6669 359° North 422 486 22,400 1,450 Climbing Jacksonville Center
Sun 08:36:00 AM 29.1578 -82.6692 359° North 428 493 23,800 1,650 Climbing Jacksonville Center
Sun 08:37:00 AM 29.2808 -82.6689 360° North 428 493 25,700 1,650 Climbing Jacksonville Center
Sun 08:38:00 AM 29.4019 -82.6708 359° North 433 498 27,100 1,450 Climbing Jacksonville Center
Sun 08:39:00 AM 29.5253 -82.6753 358° North 433 498 28,600 1,350 Climbing Jacksonville Center
Sun 08:40:00 AM 29.6442 -82.6775 359° North 433 498 29,800 700 Climbing Jacksonville Center
Sun 08:41:00 AM 29.7611 -82.6797 359° North 433 498 30,000 99 Climbing Jacksonville Center
Sun 08:42:01 AM 29.8800 -82.6794 360° North 428 493 30,000 -50 Level Jacksonville Center
Sun 08:43:00 AM 29.9844 -82.6817 359° North 422 486 29,900 151 Descending Jacksonville Center
Sun 08:44:00 AM 30.1181 -82.6789 North 422 486 30,300 500 Climbing Jacksonville Center
Sun 08:45:00 AM 30.2372 -82.6811 359° North 422 486 30,900 300 Climbing Jacksonville Center
Sun 08:46:00 AM 30.3583 -82.6808 360° North 422 486 30,900  Level Jacksonville Center
Sun 08:47:00 AM 30.4772 -82.6828 359° North 422 486 30,900  Level Jacksonville Center
Sun 08:48:00 AM 30.5878 -82.6731 North 422 486 30,900  Level Jacksonville Center
Sun 08:49:00 AM 30.7069 -82.6511 North 422 486 30,900  Level Jacksonville Center
Sun 08:50:00 AM 30.8278 -82.6314 North 428 493 30,900 50 Level Jacksonville Center
Sun 08:51:00 AM 30.9511 -82.6117 North 428 493 31,000  Climbing Jacksonville Center
Sun 08:52:00 AM 31.0722 -82.5894 North 428 493 30,900 -50 Descending Jacksonville Center
Sun 08:53:00 AM 31.1931 -82.5672 North 433 498 30,900  Level Jacksonville Center
Sun 08:54:00 AM 31.3142 -82.5472 North 433 498 30,900 50 Level Jacksonville Center
Sun 08:55:00 AM 31.4456 -82.5200 10° North 433 498 31,000 50 Climbing Jacksonville Center
Sun 08:56:00 AM 31.5689 -82.5000 North 433 498 31,000  Level Jacksonville Center
Sun 08:57:46 AM 31.7825 -82.4681 North 427 491 31,000  Level Atlanta Center
Sun 08:58:46 AM 31.9014 -82.4511 North 427 491 31,000  Level Atlanta Center
Sun 08:59:46 AM 32.0219 -82.4319 North 427 491 31,000  Level Atlanta Center
Sun 09:00:46 AM 32.1428 -82.4125 North 427 491 31,000  Level Atlanta Center
Sun 09:01:46 AM 32.2617 -82.3908 North 427 491 31,000  Level Atlanta Center
Sun 09:02:46 AM 32.3825 -82.3736 North 427 491 31,000  Level Atlanta Center
Sun 09:03:46 AM 32.5053 -82.3542 North 427 491 31,000  Level Atlanta Center
Sun 09:04:46 AM 32.6239 -82.3347 North 432 497 31,000 200 Level Atlanta Center
Sun 09:05:46 AM 32.7447 -82.3150 North 432 497 31,400 650 Climbing Atlanta Center
Sun 09:06:46 AM 32.8636 -82.2978 North 432 497 32,300 750 Climbing Atlanta Center
Sun 09:07:46 AM 32.9822 -82.2781 North 427 491 32,900 350 Climbing Atlanta Center
Sun 09:08:46 AM 33.1008 -82.2583 North 427 491 33,000 50 Climbing Atlanta Center
Sun 09:09:46 AM 33.2217 -82.2411 North 427 491 33,000  Level Atlanta Center
Sun 09:10:46 AM 33.3383 -82.2211 North 427 491 33,000  Level Atlanta Center
Sun 09:11:46 AM 33.4592 -82.2011 North 427 491 33,000  Level Atlanta Center
Sun 09:12:46 AM 33.5797 -82.1811 North 427 491 33,000  Level Atlanta Center
Sun 09:13:46 AM 33.6858 -82.1614 North 427 491 33,000  Level Atlanta Center
Sun 09:14:46 AM 33.8047 -82.1414 North 427 491 33,000  Level Atlanta Center
Sun 09:15:46 AM 33.9211 -82.1211 North 427 491 33,000  Level Atlanta Center
Sun 09:16:46 AM 34.0378 -82.1036 North 422 486 33,000  Level Atlanta Center
Sun 09:17:46 AM 34.1522 -82.0833 North 422 486 33,000  Level Atlanta Center
Sun 09:18:46 AM 34.2689 -82.0631 North 422 486 33,000  Level Atlanta Center
Sun 09:19:46 AM 34.3833 -82.0428 North 422 486 33,000  Level Atlanta Center
Sun 09:20:46 AM 34.4978 -82.0200 North 422 486 33,000  Level Atlanta Center
Sun 09:21:46 AM 34.6164 -82.0019 North 422 486 33,000  Level Atlanta Center
Sun 09:22:46 AM 34.7350 -81.9814 North 422 486 33,000  Level Atlanta Center
Sun 09:23:46 AM 34.8514 -81.9608 North 422 486 33,000  Level Atlanta Center
Sun 09:24:46 AM 34.9722 -81.9400 North 427 491 33,000  Level Atlanta Center
Sun 09:25:46 AM 35.0906 -81.9142 10° North 427 491 33,000  Level Atlanta Center
Sun 09:26:46 AM 35.2111 -81.8806 13° North 427 491 33,000  Level Atlanta Center
Sun 09:27:46 AM 35.3275 -81.8494 12° North 427 491 33,000  Level Atlanta Center
Sun 09:28:46 AM 35.4478 -81.8106 15° North 433 498 33,000  Level Atlanta Center
Sun 09:29:46 AM 35.5661 -81.7794 12° North 433 498 33,000  Level Atlanta Center
Sun 09:30:46 AM 35.6886 -81.7453 13° North 433 498 33,000  Level Atlanta Center
Sun 09:31:46 AM 35.8086 -81.7061 15° North 433 498 33,000  Level Atlanta Center
Sun 09:32:46 AM 35.9267 -81.6617 17° North 438 504 33,000  Level Atlanta Center
Sun 09:33:46 AM 36.0492 -81.6219 15° North 438 504 33,000  Level Atlanta Center
Sun 09:35:46 AM 36.2894 -81.5375 16° North 438 504 33,000  Level Atlanta Center
Sun 09:36:46 AM 36.4114 -81.4950 16° North 443 510 33,000  Level Atlanta Center
Sun 09:38:17 AM 36.5972 -81.4297 16° North 450 518 33,000  Level Indianapolis Center
Sun 09:39:18 AM 36.7156 -81.3892 15° North 450 518 33,000  Level Indianapolis Center
Sun 09:40:19 AM 36.8353 -81.3467 16° North 452 520 33,000  Level Indianapolis Center
Sun 09:41:21 AM 36.9531 -81.3047 16° North 452 520 33,000  Level Indianapolis Center
Sun 09:43:23 AM 37.2122 -81.2144 16° North 453 521 33,000  Level Indianapolis Center
Sun 09:44:25 AM 37.3344 -81.1722 15° North 453 521 33,000  Level Indianapolis Center
Sun 09:45:26 AM 37.4550 -81.1319 15° North 454 522 33,000  Level Indianapolis Center
Sun 09:46:27 AM 37.5992 -81.0833 15° North 454 522 33,000  Level Indianapolis Center
Sun 09:47:29 AM 37.7189 -81.0408 16° North 454 522 33,000  Level Indianapolis Center
Sun 09:48:30 AM 37.8369 -80.9992 16° North 456 525 33,000  Level Indianapolis Center
Sun 09:49:31 AM 37.9603 -80.9550 16° North 456 525 33,000  Level Indianapolis Center
Sun 09:50:33 AM 38.0828 -80.9103 16° North 457 526 33,000  Level Indianapolis Center
Sun 09:51:34 AM 38.2050 -80.8664 16° North 457 526 33,000  Level Indianapolis Center
Sun 09:52:35 AM 38.3503 -80.8133 16° North 457 526 33,000  Level Indianapolis Center
Sun 09:53:37 AM 38.4703 -80.7697 16° North 455 524 33,000  Level Indianapolis Center
Sun 09:54:38 AM 38.5917 -80.7242 16° North 454 522 33,000  Level Indianapolis Center
Sun 09:55:39 AM 38.7114 -80.6800 16° North 454 522 33,000  Level Indianapolis Center
Sun 09:56:41 AM 38.8311 -80.6350 16° North 454 522 33,000  Level Indianapolis Center
Sun 09:57:42 AM 38.9517 -80.5925 15° North 453 521 33,000  Level Indianapolis Center
Sun 09:58:44 AM 39.0700 -80.5464 17° North 451 519 33,000  Level Indianapolis Center
Sun 09:59:45 AM 39.1906 -80.5017 16° North 451 519 33,000  Level Indianapolis Center
Sun 10:00:46 AM 39.3333 -80.4472 16° North 450 518 33,000  Level Indianapolis Center
Sun 10:01:48 AM 39.4539 -80.4014 16° North 450 518 33,000  Level Indianapolis Center
Sun 10:02:49 AM 39.5719 -80.3558 17° North 447 514 33,000  Level Indianapolis Center
Sun 10:03:50 AM 39.6925 -80.3136 15° North 447 514 33,000  Level Indianapolis Center
Sun 10:04:52 AM 39.8136 -80.2675 16° North 450 518 33,000  Level Indianapolis Center
Sun 10:05:53 AM 39.9344 -80.2203 17° North 450 518 33,000  Level Indianapolis Center
Sun 10:06:54 AM 40.0558 -80.1753 16° North 450 518 33,000  Level Indianapolis Center
Sun 10:07:56 AM 40.1764 -80.1286 16° North 451 519 33,000  Level Indianapolis Center
Sun 10:09:22 AM 40.3539 -80.0594 17° North 453 521 33,000  Level Cleveland Center
Sun 10:10:23 AM 40.4744 -80.0131 16° North 454 522 33,000  Level Cleveland Center
Sun 10:11:25 AM 40.6019 -79.9625 17° North 456 525 33,000  Level Cleveland Center
Sun 10:12:26 AM 40.7236 -79.9150 16° North 458 527 33,000 -146 Level Cleveland Center
Sun 10:13:28 AM 40.8458 -79.8678 16° North 458 527 32,700 -732 Descending Cleveland Center
Sun 10:14:29 AM 40.9906 -79.8114 16° North 456 525 31,500 -1,122 Descending Cleveland Center
Sun 10:15:31 AM 41.1072 -79.7644 17° North 443 510 30,400 -1,024 Descending Cleveland Center
Sun 10:16:32 AM 41.2231 -79.7192 16° North 442 509 29,400 -1,220 Descending Cleveland Center
Sun 10:17:34 AM 41.3433 -79.6706 17° North 450 518 27,900 -1,415 Descending Cleveland Center
Sun 10:18:35 AM 41.4622 -79.6225 17° North 449 517 26,500 -1,366 Descending Cleveland Center
Sun 10:19:37 AM 41.5806 -79.5750 17° North 447 514 25,100 -1,366 Descending Cleveland Center
Sun 10:20:38 AM 41.6942 -79.5297 17° North 430 495 23,700 -1,512 Descending Cleveland Center
Sun 10:21:40 AM 41.8278 -79.4744 17° North 420 483 22,000 -1,268 Descending Cleveland Center
Sun 10:22:41 AM 41.9408 -79.4281 17° North 424 488 21,100 -976 Descending Cleveland Center
Sun 10:23:43 AM 42.0508 -79.3833 17° North 417 480 20,000 -1,561 Descending Cleveland Center
Sun 10:24:44 AM 42.1614 -79.3367 17° North 416 479 17,900 -1,463 Descending Cleveland Center
Sun 10:25:46 AM 42.2742 -79.2922 16° North 424 488 17,000 -1,073 Descending Cleveland Center
Sun 10:26:47 AM 42.3822 -79.2456 18° North 415 478 15,700 -1,366 Descending Cleveland Center
Sun 10:27:49 AM 42.4842 -79.1789 26° Northeast 421 484 14,200 -1,268 Descending Cleveland Center
Sun 10:28:50 AM 42.5992 -79.0864 31° Northeast 398 458 13,100 -878 Descending Cleveland Center
Sun 10:29:52 AM 42.6883 -79.0153 30° Northeast 375 432 12,400 -1,122 Descending Cleveland Center
Sun 10:30:53 AM 42.7667 -78.9494 32° Northeast 336 387 10,800 -1,756 Descending Cleveland Center
Sun 10:31:55 AM 42.8394 -78.8850 33° Northeast 315 362 8,800 -1,958 Descending Cleveland Center
Sun 10:32:28 AM 42.8833 -78.8500 30° Northeast 272 313 7,700 -1,806 Descending Buffalo TRACON
Sun 10:33:28 AM 42.9333 -78.8000 36° Northeast 239 275 6,000 -1,800 Descending Buffalo TRACON
Sun 10:34:28 AM 43.0000 -78.7667 20° North 227 261 4,100 -1,450 Descending Buffalo TRACON
Sun 10:35:28 AM 43.0500 -78.7333 26° Northeast 237 273 3,100 -947 Descending Buffalo TRACON
Sun 10:36:22 AM 43.1000 -78.7500 346° North 215 247 2,300 -421 Descending Buffalo TRACON
Sun 10:37:22 AM 43.1167 -78.8167 289° West 163 188 2,300 -400 Level Buffalo TRACON
Sun 10:38:22 AM 43.1167 -78.8667 270° West 135 155 1,500 -700 Descending Buffalo TRACON
Sun 10:39:22 AM 43.1167 -78.9167 270° West 117 135 900 -600 Descending Buffalo TRACON

Login

Don't have an account? Register now (free) for customized features, flight alerts, and more!